ARG1612 SABE-SAZM
Flight info
| Callsign | ARG1612 |
|---|---|
| Flight time | 0h 43m |
| Altitude | 25000 |
| Route | PTA8 GBE UW29 VOTRA VOTRA2Q |
| Aircraft | B738/M-SDE2E3FGHIRWXY/LB1 |
Departure
| Time | 2026-05-07 02:13 |
|---|---|
| Airport | Aeroparque Jorge Newbery (SABE) |
Arrival
| Time | 2026-05-07 02:56 |
|---|---|
| Airport | Ástor Piazzola International Airport (SAZM) |
| Time | Latitude | Longitude | Altitude | Speed | Heading |
|---|---|---|---|---|---|
| 2026-05-07 01:45 | -34.56079 | -58.40850 | 27 ft | 0 kts | 38° |
| 2026-05-07 02:04 | -34.56084 | -58.40855 | 26 ft | 4 kts | 38° |
| 2026-05-07 02:05 | -34.56105 | -58.40875 | 27 ft | 4 kts | 41° |
| 2026-05-07 02:05 | -34.56122 | -58.40898 | 30 ft | 4 kts | 74° |
| 2026-05-07 02:05 | -34.56119 | -58.40918 | 29 ft | 4 kts | 137° |
| 2026-05-07 02:05 | -34.56102 | -58.40934 | 30 ft | 1 kts | 146° |
| 2026-05-07 02:06 | -34.56101 | -58.40934 | 30 ft | 0 kts | 146° |
| 2026-05-07 02:08 | -34.56102 | -58.40934 | 30 ft | 0 kts | 146° |
| 2026-05-07 02:08 | -34.56110 | -58.40926 | 28 ft | 3 kts | 144° |
| 2026-05-07 02:08 | -34.56125 | -58.40910 | 28 ft | 6 kts | 133° |
| 2026-05-07 02:08 | -34.56153 | -58.40863 | 27 ft | 8 kts | 123° |
| 2026-05-07 02:09 | -34.56182 | -58.40811 | 27 ft | 7 kts | 123° |
| 2026-05-07 02:09 | -34.56210 | -58.40761 | 27 ft | 7 kts | 124° |
| 2026-05-07 02:09 | -34.56236 | -58.40713 | 24 ft | 7 kts | 124° |
| 2026-05-07 02:09 | -34.56264 | -58.40665 | 25 ft | 7 kts | 124° |
| 2026-05-07 02:10 | -34.56289 | -58.40619 | 28 ft | 7 kts | 123° |
| 2026-05-07 02:10 | -34.56317 | -58.40576 | 24 ft | 6 kts | 133° |
| 2026-05-07 02:10 | -34.56350 | -58.40539 | 28 ft | 6 kts | 138° |
| 2026-05-07 02:10 | -34.56382 | -58.40504 | 17 ft | 6 kts | 138° |
| 2026-05-07 02:11 | -34.56402 | -58.40482 | 24 ft | 2 kts | 138° |
| 2026-05-07 02:11 | -34.56413 | -58.40471 | 24 ft | 3 kts | 138° |
| 2026-05-07 02:11 | -34.56438 | -58.40444 | 26 ft | 8 kts | 138° |
| 2026-05-07 02:11 | -34.56492 | -58.40387 | 26 ft | 12 kts | 150° |
| 2026-05-07 02:12 | -34.56555 | -58.40429 | 28 ft | 12 kts | 262° |
| 2026-05-07 02:12 | -34.56497 | -58.40552 | 24 ft | 37 kts | 304° |
| 2026-05-07 02:12 | -34.56209 | -58.41067 | 26 ft | 109 kts | 304° |
| 2026-05-07 02:12 | -34.55680 | -58.42027 | 136 ft | 155 kts | 306° |
| 2026-05-07 02:13 | -34.55077 | -58.43148 | 798 ft | 160 kts | 303° |
| 2026-05-07 02:13 | -34.54292 | -58.44104 | 1584 ft | 172 kts | 330° |
| 2026-05-07 02:13 | -34.53047 | -58.44274 | 2280 ft | 195 kts | 7° |
| 2026-05-07 02:13 | -34.51838 | -58.43386 | 2898 ft | 219 kts | 38° |
| 2026-05-07 02:14 | -34.51032 | -58.41714 | 3504 ft | 243 kts | 63° |
| 2026-05-07 02:14 | -34.50696 | -58.39535 | 3757 ft | 287 kts | 81° |
| 2026-05-07 02:14 | -34.50875 | -58.37002 | 4339 ft | 308 kts | 96° |
| 2026-05-07 02:14 | -34.51499 | -58.34475 | 4771 ft | 317 kts | 105° |
| 2026-05-07 02:15 | -34.52220 | -58.31942 | 4823 ft | 316 kts | 103° |
| 2026-05-07 02:15 | -34.52875 | -58.29380 | 5243 ft | 324 kts | 103° |
| 2026-05-07 02:15 | -34.53872 | -58.26939 | 6263 ft | 324 kts | 129° |
| 2026-05-07 02:15 | -34.55605 | -58.25205 | 7018 ft | 329 kts | 158° |
| 2026-05-07 02:16 | -34.57772 | -58.24577 | 7633 ft | 320 kts | 187° |
| 2026-05-07 02:16 | -34.59931 | -58.24974 | 7655 ft | 309 kts | 199° |
| 2026-05-07 02:16 | -34.62047 | -58.25447 | 7641 ft | 309 kts | 198° |
| 2026-05-07 02:16 | -34.64155 | -58.25874 | 7638 ft | 306 kts | 197° |
| 2026-05-07 02:17 | -34.66250 | -58.26282 | 7645 ft | 306 kts | 197° |
| 2026-05-07 02:17 | -34.68364 | -58.26685 | 7664 ft | 307 kts | 197° |
| 2026-05-07 02:17 | -34.70473 | -58.27082 | 7646 ft | 307 kts | 196° |
| 2026-05-07 02:17 | -34.72587 | -58.27476 | 7670 ft | 307 kts | 196° |
| 2026-05-07 02:18 | -34.74718 | -58.27872 | 8154 ft | 312 kts | 196° |
| 2026-05-07 02:18 | -34.76845 | -58.28263 | 9180 ft | 307 kts | 196° |
| 2026-05-07 02:18 | -34.78924 | -58.28645 | 10009 ft | 311 kts | 196° |
| 2026-05-07 02:18 | -34.81132 | -58.29060 | 10307 ft | 335 kts | 196° |
| 2026-05-07 02:19 | -34.83516 | -58.29513 | 10561 ft | 357 kts | 195° |
| 2026-05-07 02:19 | -34.86005 | -58.29975 | 11146 ft | 365 kts | 195° |
| 2026-05-07 02:19 | -34.88535 | -58.30436 | 11891 ft | 369 kts | 195° |
| 2026-05-07 02:19 | -34.91089 | -58.30900 | 12648 ft | 373 kts | 195° |
| 2026-05-07 02:20 | -34.93663 | -58.31367 | 13451 ft | 375 kts | 195° |
| 2026-05-07 02:20 | -34.96273 | -58.31844 | 14023 ft | 382 kts | 195° |
| 2026-05-07 02:20 | -34.98917 | -58.32330 | 14624 ft | 387 kts | 195° |
| 2026-05-07 02:20 | -35.01594 | -58.32821 | 15287 ft | 391 kts | 195° |
| 2026-05-07 02:21 | -35.04275 | -58.33314 | 15938 ft | 394 kts | 195° |
| 2026-05-07 02:21 | -35.07004 | -58.33817 | 16551 ft | 399 kts | 195° |
| 2026-05-07 02:21 | -35.09761 | -58.34325 | 17165 ft | 403 kts | 195° |
| 2026-05-07 02:21 | -35.12558 | -58.34841 | 17798 ft | 407 kts | 194° |
| 2026-05-07 02:22 | -35.15373 | -58.35361 | 18372 ft | 411 kts | 195° |
| 2026-05-07 02:22 | -35.18214 | -58.35886 | 18925 ft | 415 kts | 194° |
| 2026-05-07 02:22 | -35.21119 | -58.36157 | 19509 ft | 424 kts | 184° |
| 2026-05-07 02:22 | -35.24023 | -58.35799 | 20120 ft | 430 kts | 177° |
| 2026-05-07 02:23 | -35.26996 | -58.35260 | 20693 ft | 434 kts | 176° |
| 2026-05-07 02:23 | -35.29992 | -58.34694 | 21199 ft | 438 kts | 176° |
| 2026-05-07 02:23 | -35.33024 | -58.34122 | 21717 ft | 442 kts | 176° |
| 2026-05-07 02:23 | -35.36070 | -58.33558 | 22264 ft | 445 kts | 176° |
| 2026-05-07 02:24 | -35.39144 | -58.32998 | 22872 ft | 446 kts | 176° |
| 2026-05-07 02:24 | -35.42203 | -58.32449 | 23523 ft | 444 kts | 177° |
| 2026-05-07 02:24 | -35.45212 | -58.31603 | 24098 ft | 449 kts | 162° |
| 2026-05-07 02:24 | -35.47968 | -58.29751 | 24588 ft | 456 kts | 144° |
| 2026-05-07 02:25 | -35.50296 | -58.27084 | 24620 ft | 456 kts | 131° |
| 2026-05-07 02:25 | -35.52349 | -58.24137 | 24632 ft | 455 kts | 129° |
| 2026-05-07 02:25 | -35.54354 | -58.21118 | 24652 ft | 456 kts | 128° |
| 2026-05-07 02:25 | -35.56345 | -58.18081 | 24621 ft | 457 kts | 128° |
| 2026-05-07 02:26 | -35.58332 | -58.15027 | 24633 ft | 457 kts | 128° |
| 2026-05-07 02:26 | -35.60311 | -58.11973 | 24632 ft | 457 kts | 128° |
| 2026-05-07 02:26 | -35.62291 | -58.08909 | 24629 ft | 457 kts | 128° |
| 2026-05-07 02:26 | -35.64260 | -58.05856 | 24628 ft | 457 kts | 128° |
| 2026-05-07 02:27 | -35.66233 | -58.02792 | 24631 ft | 456 kts | 128° |
| 2026-05-07 02:27 | -35.68198 | -57.99738 | 24642 ft | 455 kts | 128° |
| 2026-05-07 02:27 | -35.70165 | -57.96679 | 24637 ft | 455 kts | 128° |
| 2026-05-07 02:27 | -35.72130 | -57.93624 | 24631 ft | 455 kts | 128° |
| 2026-05-07 02:28 | -35.74068 | -57.90606 | 24616 ft | 454 kts | 128° |
| 2026-05-07 02:28 | -35.76021 | -57.87551 | 24626 ft | 454 kts | 128° |
| 2026-05-07 02:28 | -35.77994 | -57.84451 | 24629 ft | 454 kts | 128° |
| 2026-05-07 02:28 | -35.79934 | -57.81397 | 25246 ft | 452 kts | 128° |
| 2026-05-07 02:29 | -35.81859 | -57.78358 | 24597 ft | 451 kts | 128° |
| 2026-05-07 02:29 | -35.83795 | -57.75298 | 24645 ft | 456 kts | 128° |
| 2026-05-07 02:29 | -35.85748 | -57.72216 | 24630 ft | 455 kts | 128° |
| 2026-05-07 02:29 | -35.87696 | -57.69143 | 24632 ft | 455 kts | 128° |
| 2026-05-07 02:30 | -35.89620 | -57.66109 | 24635 ft | 455 kts | 128° |
| 2026-05-07 02:30 | -35.91587 | -57.63003 | 24620 ft | 454 kts | 128° |
| 2026-05-07 02:30 | -35.93533 | -57.59930 | 24626 ft | 454 kts | 128° |
| 2026-05-07 02:30 | -35.95492 | -57.56957 | 24626 ft | 453 kts | 136° |
| 2026-05-07 02:31 | -35.98034 | -57.54730 | 24659 ft | 446 kts | 159° |
| 2026-05-07 02:31 | -36.00967 | -57.53588 | 24636 ft | 438 kts | 176° |
| 2026-05-07 02:31 | -36.03970 | -57.53421 | 24645 ft | 428 kts | 192° |
| 2026-05-07 02:31 | -36.06823 | -57.54207 | 24645 ft | 415 kts | 207° |
| 2026-05-07 02:32 | -36.09519 | -57.55456 | 24644 ft | 414 kts | 209° |
| 2026-05-07 02:32 | -36.12188 | -57.56777 | 24636 ft | 414 kts | 209° |
| 2026-05-07 02:32 | -36.14854 | -57.58119 | 24632 ft | 415 kts | 209° |
| 2026-05-07 02:32 | -36.17534 | -57.59461 | 24632 ft | 415 kts | 209° |
| 2026-05-07 02:33 | -36.20218 | -57.60791 | 24643 ft | 416 kts | 209° |
| 2026-05-07 02:33 | -36.22910 | -57.62111 | 24639 ft | 416 kts | 209° |
| 2026-05-07 02:33 | -36.25611 | -57.63427 | 24633 ft | 416 kts | 208° |
| 2026-05-07 02:33 | -36.28306 | -57.64734 | 24632 ft | 416 kts | 208° |
| 2026-05-07 02:34 | -36.30996 | -57.66036 | 24643 ft | 411 kts | 209° |
| 2026-05-07 02:34 | -36.33625 | -57.67303 | 24416 ft | 405 kts | 209° |
| 2026-05-07 02:34 | -36.36222 | -57.68558 | 24131 ft | 400 kts | 209° |
| 2026-05-07 02:34 | -36.38795 | -57.69805 | 23769 ft | 398 kts | 210° |
| 2026-05-07 02:35 | -36.41364 | -57.71053 | 23399 ft | 395 kts | 210° |
| 2026-05-07 02:35 | -36.43912 | -57.72292 | 22989 ft | 392 kts | 210° |
| 2026-05-07 02:35 | -36.46441 | -57.73523 | 22555 ft | 390 kts | 210° |
| 2026-05-07 02:35 | -36.48963 | -57.74751 | 22149 ft | 387 kts | 210° |
| 2026-05-07 02:36 | -36.51026 | -57.75756 | 21824 ft | 384 kts | 210° |
| 2026-05-07 02:36 | -36.53315 | -57.76871 | 21475 ft | 381 kts | 210° |
| 2026-05-07 02:36 | -36.55773 | -57.78069 | 21104 ft | 377 kts | 210° |
| 2026-05-07 02:36 | -36.58201 | -57.79254 | 20737 ft | 374 kts | 210° |
| 2026-05-07 02:37 | -36.60620 | -57.80435 | 20373 ft | 371 kts | 210° |
| 2026-05-07 02:37 | -36.63016 | -57.81606 | 20013 ft | 369 kts | 210° |
| 2026-05-07 02:37 | -36.65395 | -57.82769 | 19649 ft | 366 kts | 210° |
| 2026-05-07 02:37 | -36.67731 | -57.83913 | 19294 ft | 364 kts | 210° |
| 2026-05-07 02:38 | -36.70082 | -57.85064 | 18952 ft | 362 kts | 210° |
| 2026-05-07 02:38 | -36.72423 | -57.86212 | 18586 ft | 361 kts | 210° |
| 2026-05-07 02:38 | -36.74754 | -57.87355 | 18231 ft | 359 kts | 210° |
| 2026-05-07 02:38 | -36.77104 | -57.88509 | 17847 ft | 359 kts | 210° |
| 2026-05-07 02:39 | -36.79419 | -57.89646 | 17438 ft | 357 kts | 210° |
| 2026-05-07 02:39 | -36.81697 | -57.90765 | 17063 ft | 355 kts | 210° |
| 2026-05-07 02:39 | -36.83984 | -57.91888 | 16697 ft | 352 kts | 210° |
| 2026-05-07 02:39 | -36.86253 | -57.93004 | 16354 ft | 349 kts | 210° |
| 2026-05-07 02:40 | -36.88527 | -57.94122 | 15987 ft | 347 kts | 210° |
| 2026-05-07 02:40 | -36.90741 | -57.95213 | 15634 ft | 345 kts | 210° |
| 2026-05-07 02:40 | -36.92964 | -57.96309 | 15284 ft | 343 kts | 210° |
| 2026-05-07 02:40 | -36.95181 | -57.97403 | 14939 ft | 341 kts | 210° |
| 2026-05-07 02:41 | -36.97381 | -57.98489 | 14588 ft | 339 kts | 210° |
| 2026-05-07 02:41 | -36.99569 | -57.99570 | 14237 ft | 337 kts | 210° |
| 2026-05-07 02:41 | -37.01740 | -58.00642 | 13894 ft | 335 kts | 210° |
| 2026-05-07 02:41 | -37.03899 | -58.01708 | 13650 ft | 329 kts | 210° |
| 2026-05-07 02:42 | -37.06043 | -58.02628 | 13597 ft | 327 kts | 198° |
| 2026-05-07 02:42 | -37.08314 | -58.02622 | 13597 ft | 327 kts | 180° |
| 2026-05-07 02:42 | -37.10542 | -58.02180 | 13415 ft | 324 kts | 177° |
| 2026-05-07 02:42 | -37.12804 | -58.01656 | 12669 ft | 338 kts | 176° |
| 2026-05-07 02:43 | -37.15141 | -58.01098 | 12019 ft | 346 kts | 176° |
| 2026-05-07 02:43 | -37.17523 | -58.00530 | 11577 ft | 347 kts | 175° |
| 2026-05-07 02:43 | -37.19892 | -57.99970 | 11177 ft | 346 kts | 175° |
| 2026-05-07 02:43 | -37.22249 | -57.99421 | 10822 ft | 343 kts | 175° |
| 2026-05-07 02:44 | -37.24585 | -57.98883 | 10467 ft | 340 kts | 175° |
| 2026-05-07 02:44 | -37.26900 | -57.98355 | 10132 ft | 337 kts | 176° |
| 2026-05-07 02:44 | -37.29185 | -57.97837 | 9923 ft | 330 kts | 176° |
| 2026-05-07 02:44 | -37.31411 | -57.97331 | 9781 ft | 321 kts | 176° |
| 2026-05-07 02:45 | -37.33550 | -57.96846 | 9643 ft | 312 kts | 176° |
| 2026-05-07 02:45 | -37.35684 | -57.96364 | 9573 ft | 302 kts | 176° |
| 2026-05-07 02:45 | -37.37727 | -57.95903 | 9172 ft | 303 kts | 175° |
| 2026-05-07 02:45 | -37.39797 | -57.95441 | 8893 ft | 300 kts | 175° |
| 2026-05-07 02:46 | -37.41852 | -57.94980 | 8566 ft | 299 kts | 175° |
| 2026-05-07 02:46 | -37.43894 | -57.94521 | 8273 ft | 297 kts | 175° |
| 2026-05-07 02:46 | -37.45889 | -57.94071 | 7988 ft | 292 kts | 175° |
| 2026-05-07 02:46 | -37.47857 | -57.93625 | 7701 ft | 283 kts | 175° |
| 2026-05-07 02:47 | -37.49762 | -57.93192 | 7435 ft | 274 kts | 175° |
| 2026-05-07 02:47 | -37.51609 | -57.92773 | 7188 ft | 266 kts | 175° |
| 2026-05-07 02:47 | -37.53406 | -57.92366 | 6931 ft | 258 kts | 176° |
| 2026-05-07 02:47 | -37.55151 | -57.91972 | 6689 ft | 251 kts | 175° |
| 2026-05-07 02:48 | -37.56843 | -57.91589 | 6456 ft | 244 kts | 175° |
| 2026-05-07 02:48 | -37.58499 | -57.91215 | 6228 ft | 239 kts | 175° |
| 2026-05-07 02:48 | -37.60129 | -57.90848 | 6017 ft | 240 kts | 175° |
| 2026-05-07 02:48 | -37.61776 | -57.90477 | 5778 ft | 241 kts | 175° |
| 2026-05-07 02:49 | -37.63434 | -57.90102 | 5532 ft | 242 kts | 175° |
| 2026-05-07 02:49 | -37.65088 | -57.89728 | 5281 ft | 242 kts | 175° |
| 2026-05-07 02:49 | -37.66743 | -57.89352 | 5043 ft | 241 kts | 175° |
| 2026-05-07 02:49 | -37.68388 | -57.88979 | 4805 ft | 240 kts | 175° |
| 2026-05-07 02:50 | -37.70027 | -57.88606 | 4569 ft | 238 kts | 174° |
| 2026-05-07 02:50 | -37.71625 | -57.88242 | 4463 ft | 230 kts | 175° |
| 2026-05-07 02:50 | -37.73192 | -57.87885 | 4368 ft | 227 kts | 174° |
| 2026-05-07 02:50 | -37.74742 | -57.87533 | 4298 ft | 227 kts | 173° |
| 2026-05-07 02:51 | -37.76325 | -57.87175 | 4276 ft | 233 kts | 173° |
| 2026-05-07 02:51 | -37.77921 | -57.86719 | 4257 ft | 238 kts | 160° |
| 2026-05-07 02:51 | -37.79163 | -57.85357 | 4244 ft | 241 kts | 125° |
| 2026-05-07 02:51 | -37.80079 | -57.83593 | 4096 ft | 243 kts | 127° |
| 2026-05-07 02:52 | -37.81035 | -57.81828 | 3849 ft | 244 kts | 125° |
| 2026-05-07 02:52 | -37.81965 | -57.80027 | 3597 ft | 244 kts | 124° |
| 2026-05-07 02:52 | -37.82879 | -57.78215 | 3376 ft | 243 kts | 123° |
| 2026-05-07 02:52 | -37.83763 | -57.76455 | 3138 ft | 238 kts | 123° |
| 2026-05-07 02:53 | -37.84633 | -57.74727 | 2983 ft | 227 kts | 123° |
| 2026-05-07 02:53 | -37.85470 | -57.73067 | 2734 ft | 222 kts | 123° |
| 2026-05-07 02:53 | -37.86291 | -57.71439 | 2457 ft | 216 kts | 123° |
| 2026-05-07 02:53 | -37.87072 | -57.69889 | 2193 ft | 202 kts | 123° |
| 2026-05-07 02:54 | -37.87809 | -57.68429 | 1933 ft | 189 kts | 122° |
| 2026-05-07 02:54 | -37.88274 | -57.67508 | 1769 ft | 179 kts | 122° |
| 2026-05-07 02:54 | -37.88923 | -57.66224 | 1521 ft | 173 kts | 121° |
| 2026-05-07 02:54 | -37.89563 | -57.64956 | 1299 ft | 171 kts | 121° |
| 2026-05-07 02:55 | -37.90208 | -57.63678 | 1072 ft | 173 kts | 121° |
| 2026-05-07 02:55 | -37.90851 | -57.62405 | 839 ft | 168 kts | 121° |
| 2026-05-07 02:55 | -37.91449 | -57.61221 | 629 ft | 151 kts | 122° |
| 2026-05-07 02:55 | -37.91987 | -57.60145 | 424 ft | 143 kts | 120° |
| 2026-05-07 02:56 | -37.92511 | -57.59096 | 236 ft | 137 kts | 122° |
| 2026-05-07 02:56 | -37.93019 | -57.58114 | 53 ft | 128 kts | 121° |
| 2026-05-07 02:56 | -37.93444 | -57.57276 | 39 ft | 90 kts | 123° |
| 2026-05-07 02:56 | -37.93676 | -57.56816 | 45 ft | 42 kts | 123° |
| 2026-05-07 02:57 | -37.93812 | -57.56547 | 45 ft | 28 kts | 122° |
| 2026-05-07 02:57 | -37.93891 | -57.56391 | 41 ft | 15 kts | 122° |
| 2026-05-07 02:57 | -37.93967 | -57.56326 | 44 ft | 14 kts | 194° |
| 2026-05-07 02:57 | -37.94008 | -57.56392 | 46 ft | 9 kts | 246° |
| 2026-05-07 02:58 | -37.94033 | -57.56465 | 47 ft | 9 kts | 258° |
| 2026-05-07 02:58 | -37.94016 | -57.56537 | 44 ft | 9 kts | 298° |
| 2026-05-07 02:58 | -37.93988 | -57.56603 | 43 ft | 8 kts | 299° |
| 2026-05-07 02:58 | -37.93958 | -57.56670 | 44 ft | 11 kts | 300° |
| 2026-05-07 02:59 | -37.93908 | -57.56783 | 47 ft | 18 kts | 299° |
| 2026-05-07 02:59 | -37.93843 | -57.56931 | 44 ft | 19 kts | 299° |
| 2026-05-07 02:59 | -37.93779 | -57.57075 | 47 ft | 18 kts | 299° |
| 2026-05-07 02:59 | -37.93717 | -57.57215 | 47 ft | 18 kts | 299° |
| 2026-05-07 03:00 | -37.93657 | -57.57350 | 47 ft | 17 kts | 299° |
| 2026-05-07 03:00 | -37.93600 | -57.57479 | 47 ft | 17 kts | 299° |
| 2026-05-07 03:00 | -37.93547 | -57.57598 | 46 ft | 16 kts | 299° |
| 2026-05-07 03:00 | -37.93497 | -57.57712 | 44 ft | 15 kts | 299° |
| 2026-05-07 03:01 | -37.93446 | -57.57827 | 47 ft | 15 kts | 299° |
| 2026-05-07 03:01 | -37.93398 | -57.57934 | 47 ft | 12 kts | 299° |
| 2026-05-07 03:01 | -37.93370 | -57.57998 | 47 ft | 7 kts | 299° |
| 2026-05-07 03:01 | -37.93341 | -57.58046 | 47 ft | 7 kts | 304° |
| 2026-05-07 03:02 | -37.93329 | -57.58070 | 46 ft | 2 kts | 303° |
| 2026-05-07 03:02 | -37.93325 | -57.58077 | 47 ft | 0 kts | 303° |